Quievrain, Belgium
Current Conditions -  °F | °C
As of 9:37 AM on Thursday 23 Oct 2014 (Local Time) from EBCV Reporting Station
Overcast Overcast  
Wind Chill: 50°   Ceiling: 2900
Heat Index: 50°   Visibility: 4mi
Dew Point: 48°   Wind: 9mph
Humidity: 94%   Direction: 210°SSW
Pressure: 30.24"   Gusts: NA
Location:  50.41°N, 3.68°E
Report Text: EBCV 230737Z AUTO 21008KT 7000 OVC029/// 10/09 Q1024 WHT
Loading
Personal Weather Stations






























Interactive Weather Map
Tropical Storm Tracking
New forecast layout! Learn more

10-Day Weather Forecast

Advertisements
Track Severe Weather on mobile